Time;durP1;ratioP1;P1;durP2;ratioP2;P2;SDS_P1;SDS_P2;PMS_P1;PMS_P2;Temp;Humidity;BMP_temperature;BMP_pressure;BME280_temperature;BME280_humidity;BME280_pressure;Samples;Min_cycle;Max_cycle;Signal;HPM_P1;HPM_P2
2023/01/24 00:01:52;;;;;;;51.13;30.23;;;3.40;69.00;;;;;;5053982;28;20173;-73
2023/01/24 00:04:18;;;;;;;43.07;24.93;;;3.40;68.30;;;;;;5035843;28;20173;-72
2023/01/24 00:06:43;;;;;;;51.07;29.60;;;3.40;65.90;;;;;;5053684;28;20252;-73
2023/01/24 00:09:09;;;;;;;49.83;30.80;;;3.40;68.20;;;;;;5053329;28;20620;-72
2023/01/24 00:11:35;;;;;;;55.40;32.83;;;3.40;70.40;;;;;;5053519;28;20172;-72
2023/01/24 00:14:00;;;;;;;42.40;23.47;;;3.40;71.20;;;;;;5053779;28;20264;-72
2023/01/24 00:16:26;;;;;;;46.00;26.80;;;3.40;71.80;;;;;;5053427;28;20181;-73
2023/01/24 00:18:52;;;;;;;41.77;22.93;;;3.40;71.70;;;;;;5053449;28;20165;-72
2023/01/24 00:21:20;;;;;;;53.63;32.10;;;3.30;71.80;;;;;;5035691;28;20323;-72
2023/01/24 00:23:49;;;;;;;34.73;18.07;;;3.40;73.70;;;;;;5053068;28;20754;-73
2023/01/24 00:26:16;;;;;;;44.83;26.27;;;3.30;66.50;;;;;;5053263;28;20165;-72
2023/01/24 00:28:42;;;;;;;47.33;29.33;;;3.30;68.90;;;;;;5053398;28;20652;-73
2023/01/24 00:31:08;;;;;;;51.80;30.70;;;3.30;69.90;;;;;;5053378;28;20169;-73
2023/01/24 00:33:34;;;;;;;47.27;26.23;;;3.30;71.10;;;;;;5053366;28;20180;-72
2023/01/24 00:36:00;;;;;;;44.83;24.70;;;3.40;72.30;;;;;;5053463;28;20180;-73
2023/01/24 00:38:27;;;;;;;41.00;23.70;;;3.30;71.40;;;;;;5052692;28;20556;-73
2023/01/24 00:40:53;;;;;;;46.17;26.10;;;3.40;73.20;;;;;;5053158;28;20169;-73
2023/01/24 00:43:19;;;;;;;40.13;24.63;;;3.30;73.20;;;;;;5053222;28;20295;-72
2023/01/24 00:45:45;;;;;;;48.47;29.07;;;3.30;73.40;;;;;;5053237;28;20157;-72
2023/01/24 00:48:11;;;;;;;46.03;25.97;;;3.30;73.70;;;;;;5053169;28;20177;-72
2023/01/24 00:50:36;;;;;;;42.20;25.13;;;3.30;73.40;;;;;;5053164;28;20236;-72
2023/01/24 00:53:03;;;;;;;46.43;27.73;;;3.40;73.80;;;;;;5052638;28;20296;-72
2023/01/24 00:55:29;;;;;;;43.23;26.37;;;3.30;70.60;;;;;;5052769;28;20173;-72
2023/01/24 00:57:56;;;;;;;42.57;25.63;;;3.30;75.10;;;;;;5053106;28;20215;-71
2023/01/24 01:00:21;;;;;;;39.47;22.80;;;3.30;74.80;;;;;;5053219;28;20204;-71
2023/01/24 01:02:48;;;;;;;35.00;20.03;;;3.30;75.00;;;;;;5052961;28;20255;-71
2023/01/24 01:05:15;;;;;;;49.07;26.30;;;3.30;75.20;;;;;;5053261;28;20172;-71
2023/01/24 01:07:41;;;;;;;43.77;27.07;;;3.30;76.70;;;;;;5052862;28;20173;-71
2023/01/24 01:10:07;;;;;;;44.73;27.33;;;3.30;78.00;;;;;;5053368;28;20165;-71
2023/01/24 01:12:33;;;;;;;44.00;27.30;;;3.30;79.70;;;;;;5053154;28;20649;-71
2023/01/24 01:14:58;;;;;;;47.77;25.90;;;3.40;77.40;;;;;;5053127;28;20173;-72
2023/01/24 01:17:26;;;;;;;48.67;28.83;;;3.40;75.40;;;;;;5053126;28;20193;-72
2023/01/24 01:19:52;;;;;;;38.47;20.03;;;3.40;78.10;;;;;;5052907;28;20169;-71
2023/01/24 01:22:18;;;;;;;47.73;27.53;;;3.30;75.00;;;;;;5034646;28;20684;-71
2023/01/24 01:24:43;;;;;;;48.17;28.33;;;3.30;78.80;;;;;;5052744;28;20176;-71
2023/01/24 01:27:09;;;;;;;48.33;25.93;;;3.30;80.80;;;;;;5034896;28;20268;-71
2023/01/24 01:29:35;;;;;;;50.03;28.93;;;3.30;78.80;;;;;;5052902;28;20165;-71
2023/01/24 01:32:01;;;;;;;46.63;25.20;;;3.30;79.30;;;;;;5052905;28;20256;-71
2023/01/24 01:34:26;;;;;;;41.50;24.50;;;3.30;78.70;;;;;;5052817;28;20165;-72
2023/01/24 01:36:52;;;;;;;38.20;20.90;;;3.40;78.10;;;;;;5052530;28;20169;-71
2023/01/24 01:39:18;;;;;;;47.73;28.00;;;3.30;76.80;;;;;;5052749;28;20201;-71
2023/01/24 01:41:43;;;;;;;49.70;28.43;;;3.30;77.30;;;;;;5052748;28;20256;-71
2023/01/24 01:44:46;;;;;;;42.13;23.30;;;3.30;80.20;;;;;;5052841;28;20304;-73
2023/01/24 01:47:24;;;;;;;35.20;20.60;;;3.30;75.50;;;;;;5053371;28;20177;-71
2023/01/24 01:50:02;;;;;;;41.50;24.00;;;3.20;72.70;;;;;;5054709;28;20177;-70
2023/01/24 01:52:32;;;;;;;39.60;24.17;;;3.30;75.60;;;;;;5052890;28;20232;-72
2023/01/24 01:55:05;;;;;;;43.03;25.70;;;3.30;76.80;;;;;;5052746;28;20177;-71
2023/01/24 01:57:33;;;;;;;37.93;21.50;;;3.30;75.30;;;;;;5052548;28;20652;-71
2023/01/24 02:00:07;;;;;;;42.07;26.07;;;3.40;72.10;;;;;;5052463;28;20712;-71
2023/01/24 02:02:33;;;;;;;37.47;19.13;;;3.30;71.90;;;;;;5052716;28;20208;-72
2023/01/24 02:05:02;;;;;;;36.67;23.13;;;3.30;69.90;;;;;;5052246;28;20177;-72
2023/01/24 02:07:37;;;;;;;44.47;26.17;;;3.30;75.20;;;;;;5055609;28;20183;-72
2023/01/24 02:10:03;;;;;;;39.07;23.63;;;3.30;75.70;;;;;;5056049;28;20192;-72
2023/01/24 02:12:35;;;;;;;40.43;24.30;;;3.30;76.50;;;;;;5055815;28;20199;-72
2023/01/24 02:17:50;;;;;;;41.30;25.20;;;3.20;75.00;;;;;;5056294;28;20188;-72
2023/01/24 02:20:46;;;;;;;40.53;24.37;;;3.30;76.40;;;;;;5055515;28;20541;-72
2023/01/24 02:23:14;;;;;;;38.00;22.60;;;3.30;74.10;;;;;;4955546;29;20231;-72
2023/01/24 02:25:47;;;;;;;42.87;25.73;;;3.30;71.50;;;;;;4955684;28;20653;-72
2023/01/24 02:28:13;;;;;;;40.73;25.87;;;3.30;69.50;;;;;;4955673;29;20189;-72
2023/01/24 02:30:39;;;;;;;41.33;26.40;;;3.20;70.70;;;;;;4955569;29;20235;-72
2023/01/24 02:33:14;;;;;;;39.63;23.07;;;3.20;73.80;;;;;;4955477;29;20192;-72
2023/01/24 02:35:40;;;;;;;39.30;26.70;;;3.30;70.50;;;;;;4954999;29;20234;-72
2023/01/24 02:38:14;;;;;;;40.03;25.57;;;3.30;72.70;;;;;;4955536;28;20177;-72
2023/01/24 02:40:41;;;;;;;40.93;26.07;;;3.40;71.90;;;;;;4955589;29;20196;-72
2023/01/24 02:43:07;;;;;;;38.87;25.60;;;3.40;71.70;;;;;;4955340;29;20669;-72
2023/01/24 02:45:34;;;;;;;33.53;20.83;;;3.30;70.80;;;;;;4955223;28;20231;-72
2023/01/24 02:47:59;;;;;;;39.73;24.70;;;3.30;67.60;;;;;;4955401;28;20180;-72
2023/01/24 02:50:28;;;;;;;39.83;24.93;;;3.30;66.90;;;;;;4954869;29;20188;-72
2023/01/24 02:58:24;;;;;;;31.13;17.57;;;3.30;64.00;;;;;;4975549;28;20179;-71
2023/01/24 03:00:50;;;;;;;43.40;24.67;;;3.30;66.70;;;;;;5055318;28;20205;-71
2023/01/24 03:03:15;;;;;;;39.50;24.83;;;3.30;71.30;;;;;;5054840;28;20699;-72
2023/01/24 03:05:56;;;;;;;38.33;25.03;;;3.30;68.10;;;;;;5054984;28;20172;-72
2023/01/24 03:08:27;;;;;;;31.63;18.77;;;3.20;68.20;;;;;;5055030;28;20176;-72
2023/01/24 03:10:53;;;;;;;34.60;20.50;;;3.20;63.50;;;;;;5054950;28;20208;-71
2023/01/24 03:35:15;;;;;;;40.10;21.63;;;3.20;64.80;;;;;;5054483;28;20173;-73
2023/01/24 03:40:25;;;;;;;39.10;23.57;;;3.20;71.20;;;;;;5054295;28;20234;-72
2023/01/24 03:42:50;;;;;;;37.10;22.53;;;3.20;71.00;;;;;;5054207;28;20753;-72
2023/01/24 03:45:25;;;;;;;38.27;23.17;;;3.30;71.60;;;;;;5069484;28;20173;-70
2023/01/24 03:47:54;;;;;;;32.27;20.47;;;3.20;69.90;;;;;;5053881;28;20169;-72
2023/01/24 03:53:22;;;;;;;36.93;21.90;;;3.20;70.90;;;;;;5053847;28;20236;-71
2023/01/24 03:55:57;;;;;;;32.97;17.43;;;3.30;71.00;;;;;;5053898;28;20177;-73
2023/01/24 03:58:23;;;;;;;33.00;19.97;;;3.30;68.50;;;;;;5054165;28;20636;-71
2023/01/24 04:00:50;;;;;;;35.87;24.50;;;3.20;66.70;;;;;;5053775;28;20181;-71
2023/01/24 04:03:15;;;;;;;35.53;21.37;;;3.20;68.00;;;;;;5035897;28;20216;-72
2023/01/24 04:05:41;;;;;;;31.47;20.60;;;3.20;65.10;;;;;;5053491;28;20173;-72
2023/01/24 04:08:07;;;;;;;28.97;16.83;;;3.20;65.10;;;;;;5053700;28;20177;-71
2023/01/24 04:10:33;;;;;;;38.83;24.70;;;3.20;65.20;;;;;;5037033;28;20177;-72
2023/01/24 04:12:59;;;;;;;36.33;22.40;;;3.40;68.90;;;;;;5054898;28;20184;-71
2023/01/24 04:15:27;;;;;;;37.53;23.53;;;3.30;70.10;;;;;;5053553;28;20177;-72
2023/01/24 04:17:57;;;;;;;38.73;22.53;;;3.30;70.50;;;;;;5053601;28;20177;-72
2023/01/24 04:20:24;;;;;;;37.33;22.00;;;3.30;66.80;;;;;;5053629;28;20705;-72
2023/01/24 04:22:49;;;;;;;35.97;22.67;;;3.20;67.20;;;;;;5053542;28;20205;-72
2023/01/24 04:25:15;;;;;;;34.77;22.10;;;3.20;69.60;;;;;;5053557;28;20722;-72
2023/01/24 04:27:41;;;;;;;36.77;24.60;;;3.20;70.20;;;;;;5053532;28;20201;-72
2023/01/24 04:30:08;;;;;;;37.07;21.83;;;3.30;72.70;;;;;;5052455;28;20203;-71
2023/01/24 04:32:35;;;;;;;37.43;23.67;;;3.30;69.40;;;;;;5035693;28;20173;-72
2023/01/24 04:35:03;;;;;;;38.80;23.87;;;3.20;66.80;;;;;;5053455;28;20169;-72
2023/01/24 04:37:29;;;;;;;35.43;23.07;;;3.20;69.10;;;;;;5035410;28;20223;-72
2023/01/24 04:39:54;;;;;;;34.47;20.43;;;3.20;67.70;;;;;;5053332;28;20230;-72
2023/01/24 04:42:20;;;;;;;36.63;23.40;;;3.30;67.80;;;;;;5053007;28;20208;-72
2023/01/24 04:44:45;;;;;;;34.87;20.57;;;3.30;69.20;;;;;;5052866;28;20613;-72
2023/01/24 04:47:11;;;;;;;33.60;19.63;;;3.20;69.60;;;;;;5053220;28;20255;-72
2023/01/24 04:49:37;;;;;;;35.87;22.17;;;3.20;70.60;;;;;;5052997;28;20180;-71
2023/01/24 04:52:02;;;;;;;34.67;21.97;;;3.10;72.00;;;;;;5052889;28;20220;-71
2023/01/24 04:54:28;;;;;;;28.43;17.43;;;3.20;71.50;;;;;;5052794;28;20185;-71
2023/01/24 04:56:54;;;;;;;32.70;20.17;;;3.20;69.80;;;;;;5053020;28;20169;-72
2023/01/24 04:59:19;;;;;;;32.70;20.17;;;3.10;68.10;;;;;;5052613;28;20173;-72
2023/01/24 05:01:46;;;;;;;36.47;22.83;;;3.10;70.60;;;;;;5053040;28;20248;-72
2023/01/24 05:04:11;;;;;;;32.83;19.67;;;3.10;70.00;;;;;;5053709;28;20239;-72
2023/01/24 05:06:37;;;;;;;36.70;23.33;;;3.10;68.90;;;;;;5053527;28;20170;-72
2023/01/24 05:09:03;;;;;;;33.63;23.10;;;3.10;73.50;;;;;;5053045;28;20248;-72
2023/01/24 05:11:29;;;;;;;39.33;24.77;;;3.10;75.30;;;;;;5053213;28;20189;-71
2023/01/24 05:13:55;;;;;;;37.63;24.50;;;3.10;74.10;;;;;;5052789;28;20232;-71
2023/01/24 05:16:21;;;;;;;28.33;16.47;;;3.10;73.40;;;;;;5052893;28;20229;-71
2023/01/24 05:18:47;;;;;;;34.57;22.63;;;3.10;74.00;;;;;;5053070;28;20173;-71
2023/01/24 05:21:17;;;;;;;29.07;17.37;;;3.00;76.20;;;;;;5053041;28;20170;-72
2023/01/24 05:23:50;;;;;;;35.70;21.43;;;3.00;76.60;;;;;;5052973;28;20208;-72
2023/01/24 05:26:15;;;;;;;39.33;22.30;;;3.10;77.80;;;;;;5052612;28;20173;-71
2023/01/24 05:28:41;;;;;;;36.10;22.87;;;3.00;74.60;;;;;;5052366;28;20579;-72
2023/01/24 05:31:08;;;;;;;38.03;21.60;;;3.00;76.60;;;;;;5052650;28;20692;-71
2023/01/24 05:33:34;;;;;;;37.40;22.27;;;3.10;77.90;;;;;;5052725;28;20188;-72
2023/01/24 05:36:05;;;;;;;38.73;24.03;;;3.00;77.40;;;;;;5052702;28;20166;-72
2023/01/24 05:38:31;;;;;;;41.33;25.87;;;3.00;80.20;;;;;;5052535;28;20177;-72
2023/01/24 05:41:04;;;;;;;39.43;25.50;;;3.00;82.10;;;;;;5053505;28;20176;-71
2023/01/24 05:43:31;;;;;;;36.23;22.93;;;3.00;80.50;;;;;;5055935;28;20205;-72
2023/01/24 05:46:09;;;;;;;37.07;22.37;;;3.00;76.20;;;;;;5056365;28;20165;-72
2023/01/24 05:48:35;;;;;;;32.30;20.37;;;3.00;81.00;;;;;;5056205;28;20663;-72
2023/01/24 05:51:07;;;;;;;28.50;17.10;;;3.00;79.90;;;;;;5038619;28;20248;-70
2023/01/24 05:53:36;;;;;;;40.17;26.07;;;3.00;78.20;;;;;;5055970;28;20221;-72
2023/01/24 05:56:04;;;;;;;40.90;26.30;;;3.00;80.20;;;;;;5056122;28;20633;-71
2023/01/24 05:58:36;;;;;;;41.53;25.80;;;2.90;83.90;;;;;;5055817;28;20236;-72
2023/01/24 06:01:09;;;;;;;42.83;25.17;;;3.00;85.00;;;;;;5056126;28;20157;-72
2023/01/24 06:03:37;;;;;;;40.20;25.77;;;3.00;81.90;;;;;;5055672;28;20203;-71
2023/01/24 06:06:03;;;;;;;38.63;24.10;;;3.10;83.50;;;;;;5055881;28;20162;-72
2023/01/24 06:08:28;;;;;;;35.20;22.30;;;3.10;84.90;;;;;;5056037;28;20223;-72
2023/01/24 06:10:54;;;;;;;42.63;25.73;;;3.10;84.10;;;;;;5055637;28;20214;-72
2023/01/24 06:13:19;;;;;;;36.27;23.03;;;3.10;81.30;;;;;;5055217;28;20637;-73
2023/01/24 06:15:45;;;;;;;38.50;24.33;;;3.00;80.50;;;;;;5055726;28;20254;-72
2023/01/24 06:18:15;;;;;;;40.40;25.77;;;3.00;84.10;;;;;;5055632;28;20165;-72
2023/01/24 06:20:41;;;;;;;39.40;25.77;;;3.00;86.90;;;;;;5055671;28;20173;-72
2023/01/24 06:23:10;;;;;;;40.90;24.90;;;3.00;86.70;;;;;;5055712;28;20232;-73
2023/01/24 06:25:36;;;;;;;37.77;22.97;;;3.10;85.60;;;;;;5055280;28;20166;-72
2023/01/24 06:28:02;;;;;;;45.67;25.73;;;3.00;81.60;;;;;;5055090;28;20170;-72
2023/01/24 06:30:28;;;;;;;41.33;25.03;;;3.10;85.00;;;;;;5056037;28;20231;-72
2023/01/24 06:33:21;;;;;;;42.90;24.87;;;3.10;83.40;;;;;;5055972;28;20177;-75
2023/01/24 06:36:05;;;;;;;43.43;26.30;;;2.90;79.10;;;;;;5059678;28;20177;-72
2023/01/24 06:38:30;;;;;;;40.60;20.33;;;2.90;82.10;;;;;;5061275;28;20176;-73
2023/01/24 06:40:59;;;;;;;42.40;23.77;;;2.90;85.70;;;;;;5073640;28;20184;-72
2023/01/24 06:43:25;;;;;;;47.77;28.97;;;2.90;89.00;;;;;;5075083;28;20200;-74
2023/01/24 06:45:51;;;;;;;30.77;17.83;;;3.00;90.40;;;;;;5074150;28;20173;-74
2023/01/24 06:48:16;;;;;;;38.60;22.70;;;3.00;84.80;;;;;;5075153;28;20187;-75
2023/01/24 06:50:42;;;;;;;49.67;34.77;;;2.90;85.60;;;;;;5055503;28;20424;-73
2023/01/24 06:53:08;;;;;;;49.20;31.03;;;2.90;90.30;;;;;;5069774;28;20228;-73
2023/01/24 06:55:34;;;;;;;48.13;35.87;;;3.00;91.40;;;;;;5071193;28;20458;-73
2023/01/24 06:58:01;;;;;;;47.10;27.83;;;3.00;89.40;;;;;;5074579;28;20172;-73
2023/01/24 07:00:29;;;;;;;48.57;29.30;;;2.90;87.30;;;;;;5074022;28;20176;-73
2023/01/24 07:03:06;;;;;;;52.40;29.27;;;2.90;88.80;;;;;;5073550;28;20255;-73
2023/01/24 07:05:32;;;;;;;50.10;29.43;;;3.00;88.60;;;;;;5074083;28;20628;-72
2023/01/24 07:07:58;;;;;;;43.63;23.70;;;3.00;87.80;;;;;;5074354;28;20251;-73
2023/01/24 07:10:24;;;;;;;47.27;26.63;;;2.90;85.50;;;;;;5072198;28;20267;-72
2023/01/24 07:12:49;;;;;;;52.73;28.03;;;2.80;89.00;;;;;;5066951;28;20718;-73
2023/01/24 07:15:15;;;;;;;50.05;33.13;;;2.90;90.20;;;;;;5062043;28;20413;-71
2023/01/24 07:17:41;;;;;;;51.93;29.93;;;2.90;88.40;;;;;;5035850;28;20176;-71
2023/01/24 07:20:07;;;;;;;55.23;31.43;;;2.90;90.20;;;;;;5055558;28;20184;-72
2023/01/24 07:22:36;;;;;;;49.77;29.07;;;2.90;90.80;;;;;;5073652;28;20203;-74
2023/01/24 07:25:02;;;;;;;53.33;28.87;;;2.90;91.80;;;;;;5081741;28;20581;-73
2023/01/24 07:27:28;;;;;;;43.33;23.43;;;2.90;91.70;;;;;;5073109;28;20229;-73
2023/01/24 07:29:54;;;;;;;56.50;31.10;;;2.90;89.90;;;;;;5073243;28;20492;-74
2023/01/24 07:32:19;;;;;;;40.97;24.27;;;2.90;90.40;;;;;;5087507;28;20255;-73
2023/01/24 07:34:45;;;;;;;41.33;22.27;;;2.80;89.30;;;;;;5071338;28;20169;-72
2023/01/24 07:37:11;;;;;;;51.67;28.50;;;2.80;90.50;;;;;;5068875;28;20219;-73
2023/01/24 07:39:36;;;;;;;49.83;29.57;;;2.80;91.50;;;;;;5062447;28;20177;-71
2023/01/24 07:42:02;;;;;;;48.33;26.17;;;2.80;91.90;;;;;;5059272;28;20660;-74
2023/01/24 07:44:27;;;;;;;52.93;28.70;;;2.90;90.60;;;;;;5066601;28;20694;-73
2023/01/24 07:46:53;;;;;;;42.93;24.27;;;2.90;90.20;;;;;;5059189;28;20188;-74
2023/01/24 07:49:19;;;;;;;54.47;30.47;;;2.90;84.90;;;;;;5056383;28;20261;-70
2023/01/24 07:51:48;;;;;;;54.93;31.03;;;2.80;86.80;;;;;;5059920;28;20224;-72
2023/01/24 07:54:13;;;;;;;58.00;42.20;;;2.90;87.80;;;;;;5059343;28;20443;-73
2023/01/24 07:56:39;;;;;;;57.33;34.90;;;3.00;91.30;;;;;;5041769;28;20733;-71
2023/01/24 07:59:05;;;;;;;52.97;31.97;;;3.00;87.00;;;;;;5063422;28;20576;-72
2023/01/24 08:01:30;;;;;;;56.63;32.73;;;2.90;87.00;;;;;;5061521;28;20173;-73
2023/01/24 08:03:57;;;;;;;54.67;31.93;;;3.00;88.30;;;;;;5062537;28;20216;-74
2023/01/24 08:06:23;;;;;;;58.17;34.53;;;2.90;85.90;;;;;;5052575;28;20597;-73
2023/01/24 08:08:48;;;;;;;52.23;30.73;;;3.00;88.20;;;;;;5058746;28;20264;-73
2023/01/24 08:11:17;;;;;;;59.70;33.53;;;3.00;81.30;;;;;;5073224;28;20169;-72
2023/01/24 08:13:46;;;;;;;62.28;40.00;;;2.90;84.50;;;;;;5065661;28;20944;-72
2023/01/24 08:16:12;;;;;;;61.67;35.87;;;3.00;86.80;;;;;;5066880;28;21732;-71
2023/01/24 08:18:38;;;;;;;51.80;32.03;;;2.90;86.60;;;;;;5069389;28;20185;-71
2023/01/24 08:21:04;;;;;;;56.73;31.30;;;2.90;82.90;;;;;;5050759;28;20171;-72
2023/01/24 08:23:30;;;;;;;60.20;35.00;;;2.90;85.90;;;;;;5048965;28;20686;-72
2023/01/24 08:26:00;;;;;;;56.80;33.33;;;2.90;89.50;;;;;;5031020;28;20185;-72
2023/01/24 08:28:26;;;;;;;51.33;29.30;;;3.00;90.20;;;;;;5036051;28;20181;-74
2023/01/24 08:30:52;;;;;;;57.23;34.13;;;3.00;83.10;;;;;;5053872;28;20177;-70
2023/01/24 08:33:18;;;;;;;51.87;28.97;;;3.00;84.20;;;;;;5055758;28;20543;-70
2023/01/24 08:35:45;;;;;;;51.80;28.70;;;3.00;82.70;;;;;;5050411;28;20188;-70
2023/01/24 08:38:12;;;;;;;60.17;35.73;;;2.90;79.70;;;;;;5064454;28;20188;-71
2023/01/24 08:40:38;;;;;;;63.77;35.47;;;2.90;84.10;;;;;;5063061;28;20173;-71
2023/01/24 08:43:04;;;;;;;62.90;35.10;;;3.00;80.90;;;;;;5066096;28;20701;-73
2023/01/24 08:45:30;;;;;;;61.57;35.30;;;3.10;78.50;;;;;;5064741;28;20260;-72
2023/01/24 08:47:55;;;;;;;61.50;32.20;;;3.10;75.80;;;;;;5058995;28;20717;-74
2023/01/24 08:50:21;;;;;;;50.97;30.40;;;3.10;79.70;;;;;;5070202;28;20193;-72
2023/01/24 08:52:47;;;;;;;57.37;33.53;;;3.10;69.80;;;;;;5062000;28;20231;-70
2023/01/24 08:55:13;;;;;;;54.53;39.35;;;3.00;67.50;;;;;;5053786;28;20866;-68
2023/01/24 08:57:39;;;;;;;48.10;26.07;;;3.00;71.20;;;;;;5062010;28;20361;-69
2023/01/24 09:00:05;;;;;;;60.27;34.70;;;2.90;73.80;;;;;;5062984;28;20484;-70
2023/01/24 09:02:32;;;;;;;57.47;33.67;;;2.90;76.50;;;;;;5050626;28;20219;-72
2023/01/24 09:04:58;;;;;;;59.73;34.60;;;3.00;77.50;;;;;;5071390;28;20645;-72
2023/01/24 09:07:25;;;;;;;58.27;32.23;;;3.00;73.90;;;;;;5064695;28;20244;-72
2023/01/24 09:09:51;;;;;;;58.43;34.63;;;3.00;75.60;;;;;;5069755;28;20180;-71
2023/01/24 09:12:16;;;;;;;59.97;33.83;;;3.00;73.20;;;;;;5080364;28;20180;-72
2023/01/24 09:14:42;;;;;;;58.40;31.63;;;3.00;77.50;;;;;;5064509;28;20991;-71
2023/01/24 09:17:07;;;;;;;52.27;31.83;;;3.00;69.90;;;;;;5071184;28;20194;-71
2023/01/24 09:19:33;;;;;;;56.73;33.00;;;3.00;71.70;;;;;;5076203;28;20183;-72
2023/01/24 09:21:58;;;;;;;58.80;35.20;;;2.90;74.00;;;;;;5080449;28;20192;-72
2023/01/24 09:24:25;;;;;;;60.50;35.40;;;3.00;75.90;;;;;;5070860;28;20234;-70
2023/01/24 09:26:50;;;;;;;50.53;28.17;;;3.00;73.40;;;;;;5076206;28;20212;-70
2023/01/24 09:29:16;;;;;;;54.83;30.77;;;3.10;62.30;;;;;;5069312;28;20605;-71
2023/01/24 09:31:42;;;;;;;53.17;31.93;;;3.00;63.30;;;;;;5060277;28;20586;-72
2023/01/24 09:34:07;;;;;;;48.23;29.00;;;3.10;64.90;;;;;;5066583;28;20200;-72
2023/01/24 09:36:33;;;;;;;55.27;32.03;;;3.00;62.10;;;;;;5071057;28;20231;-71
2023/01/24 09:38:59;;;;;;;49.30;30.37;;;3.00;65.70;;;;;;5071295;28;20250;-71
2023/01/24 09:41:40;;;;;;;46.63;27.10;;;3.00;64.70;;;;;;5076115;28;20663;-71
2023/01/24 09:44:21;;;;;;;48.90;28.60;;;3.00;60.00;;;;;;5071052;28;20209;-71
2023/01/24 09:46:53;;;;;;;44.60;25.30;;;2.90;59.60;;;;;;5070294;28;20246;-71
2023/01/24 09:49:40;;;;;;;40.47;23.80;;;3.00;61.10;;;;;;5076801;28;20279;-69
2023/01/24 09:52:15;;;;;;;39.57;23.30;;;2.90;60.10;;;;;;5074966;28;20318;-71
2023/01/24 09:55:06;;;;;;;42.53;26.00;;;2.90;58.10;;;;;;5078193;28;20188;-70
2023/01/24 09:57:42;;;;;;;36.33;20.57;;;3.00;57.50;;;;;;5068774;28;20172;-71
2023/01/24 10:00:26;;;;;;;45.87;27.93;;;2.90;54.50;;;;;;5074179;28;20370;-70
2023/01/24 10:02:54;;;;;;;41.33;24.90;;;3.00;57.00;;;;;;5076598;28;20308;-71
2023/01/24 10:05:23;;;;;;;44.73;25.60;;;3.10;53.30;;;;;;5046492;28;20175;-71
2023/01/24 10:08:22;;;;;;;47.70;27.67;;;3.20;51.60;;;;;;5070421;28;20195;-71
2023/01/24 10:11:06;;;;;;;47.10;28.67;;;3.20;52.60;;;;;;5068790;28;20738;-71
2023/01/24 10:13:50;;;;;;;44.57;25.73;;;3.30;49.20;;;;;;5063732;28;20280;-71
2023/01/24 10:16:22;;;;;;;47.87;28.90;;;3.30;41.80;;;;;;5074430;28;20207;-71
2023/01/24 10:19:21;;;;;;;45.30;27.20;;;3.20;42.40;;;;;;5064331;28;20184;-71
2023/01/24 10:22:17;;;;;;;45.30;26.07;;;3.10;45.50;;;;;;5072008;28;20191;-72
2023/01/24 10:25:11;;;;;;;29.10;16.77;;;3.10;48.20;;;;;;5066974;28;20196;-71
2023/01/24 10:27:42;;;;;;;50.00;28.40;;;3.00;49.20;;;;;;5048193;28;20277;-70
2023/01/24 10:30:43;;;;;;;48.00;30.27;;;3.10;51.80;;;;;;5056214;28;20181;-72
2023/01/24 10:33:16;;;;;;;48.17;30.80;;;3.10;51.30;;;;;;5074030;28;20778;-72
2023/01/24 10:35:58;;;;;;;46.97;28.80;;;3.10;50.90;;;;;;5070577;28;20194;-72
2023/01/24 10:38:28;;;;;;;40.07;22.73;;;3.10;48.00;;;;;;5059980;28;20207;-71
2023/01/24 10:41:13;;;;;;;49.60;29.70;;;3.00;47.70;;;;;;5041139;28;20186;-71
2023/01/24 10:43:39;;;;;;;49.00;28.60;;;3.00;51.90;;;;;;5064177;28;20251;-71
2023/01/24 10:46:12;;;;;;;47.77;30.63;;;3.10;53.70;;;;;;5065781;28;20176;-72
2023/01/24 10:48:50;;;;;;;44.13;29.10;;;3.00;48.50;;;;;;5061930;28;20180;-74
2023/01/24 10:51:22;;;;;;;37.40;22.63;;;3.00;53.70;;;;;;5062361;28;20298;-71
2023/01/24 10:53:48;;;;;;;50.50;30.90;;;3.10;47.60;;;;;;5063709;28;20172;-71
2023/01/24 10:56:16;;;;;;;53.53;32.77;;;3.20;52.40;;;;;;5074023;28;20950;-70
2023/01/24 10:58:53;;;;;;;32.80;19.90;;;3.30;51.10;;;;;;5069216;28;20678;-70
2023/01/24 11:01:21;;;;;;;49.53;29.93;;;3.20;40.40;;;;;;5067564;28;20176;-70
2023/01/24 11:03:51;;;;;;;44.47;27.57;;;3.10;49.10;;;;;;5068093;28;20223;-70
2023/01/24 11:06:36;;;;;;;45.57;28.97;;;3.10;49.40;;;;;;5050948;28;20181;-70
2023/01/24 11:09:14;;;;;;;43.50;27.37;;;3.10;45.90;;;;;;5062780;28;20185;-72
2023/01/24 11:11:49;;;;;;;37.23;23.77;;;3.10;47.10;;;;;;5059566;28;20196;-69
2023/01/24 11:14:20;;;;;;;40.00;26.33;;;3.10;42.20;;;;;;5065980;28;20180;-71
2023/01/24 11:16:49;;;;;;;41.38;32.03;;;3.20;45.00;;;;;;5052815;28;20553;-70
2023/01/24 11:19:28;;;;;;;37.57;26.30;;;3.40;35.90;;;;;;5054308;28;20678;-70
2023/01/24 11:22:16;;;;;;;42.00;26.43;;;3.20;35.40;;;;;;5056032;28;20214;-70
2023/01/24 11:24:44;;;;;;;36.00;20.73;;;3.20;39.60;;;;;;5048737;28;20211;-70
2023/01/24 11:27:20;;;;;;;44.33;28.87;;;3.10;46.40;;;;;;5054164;28;20193;-70
2023/01/24 11:30:15;;;;;;;43.23;25.70;;;3.20;48.70;;;;;;5053740;28;20176;-69
2023/01/24 11:32:49;;;;;;;41.73;25.90;;;3.30;38.10;;;;;;5035392;28;20658;-70
2023/01/24 11:35:29;;;;;;;38.77;25.00;;;3.30;37.70;;;;;;5071696;28;20194;-70
2023/01/24 11:38:10;;;;;;;35.40;23.50;;;3.30;37.40;;;;;;5057540;28;20176;-70
2023/01/24 11:40:47;;;;;;;43.30;27.77;;;3.20;40.60;;;;;;5064480;28;20172;-71
2023/01/24 11:43:21;;;;;;;47.77;30.07;;;3.30;44.20;;;;;;5064702;28;20207;-71
2023/01/24 11:46:20;;;;;;;45.63;28.23;;;3.40;42.20;;;;;;5081233;28;20694;-71
2023/01/24 11:49:04;;;;;;;45.77;26.30;;;3.50;40.40;;;;;;5076828;28;20189;-71
2023/01/24 11:52:06;;;;;;;51.80;29.27;;;3.40;38.30;;;;;;5083321;28;20180;-71
2023/01/24 11:55:17;;;;;;;50.77;29.37;;;3.30;42.00;;;;;;5076414;28;20172;-69
2023/01/24 11:57:58;;;;;;;52.33;32.73;;;3.50;44.70;;;;;;5028590;28;20203;-71
2023/01/24 12:00:31;;;;;;;53.87;31.90;;;3.50;42.20;;;;;;5060341;28;20209;-69
2023/01/24 12:03:26;;;;;;;56.93;34.60;;;3.50;37.90;;;;;;5069925;28;20359;-71
2023/01/24 12:06:25;;;;;;;52.93;30.37;;;3.50;40.30;;;;;;5076846;28;20206;-70
2023/01/24 12:09:07;;;;;;;51.03;31.13;;;3.50;35.40;;;;;;5075403;28;20184;-72
2023/01/24 12:11:46;;;;;;;50.77;31.30;;;3.60;34.10;;;;;;5052015;28;20590;-71
2023/01/24 12:14:12;;;;;;;52.73;32.63;;;3.50;35.30;;;;;;5057921;28;20178;-71
2023/01/24 12:17:05;;;;;;;55.03;32.87;;;3.50;36.70;;;;;;5063704;28;20181;-70
2023/01/24 12:19:51;;;;;;;43.27;24.70;;;3.60;40.40;;;;;;5062029;28;20737;-71
2023/01/24 12:22:21;;;;;;;50.07;29.67;;;3.50;26.80;;;;;;5069901;28;20663;-72
2023/01/24 12:24:54;;;;;;;47.03;28.37;;;3.40;31.90;;;;;;5038335;28;20272;-69
2023/01/24 12:27:24;;;;;;;49.50;31.80;;;3.50;37.40;;;;;;5064821;28;20188;-71
2023/01/24 12:29:49;;;;;;;53.87;33.00;;;3.40;39.50;;;;;;5060894;28;20192;-70
2023/01/24 12:32:41;;;;;;;54.30;32.77;;;3.50;36.60;;;;;;5058822;28;20660;-69
2023/01/24 12:35:25;;;;;;;47.30;30.00;;;3.60;35.50;;;;;;5067421;28;20184;-68
2023/01/24 12:38:13;;;;;;;49.27;30.33;;;3.50;29.30;;;;;;5056968;28;20165;-69
2023/01/24 12:40:48;;;;;;;53.10;28.80;;;3.50;29.90;;;;;;5055892;28;20271;-69
2023/01/24 12:43:33;;;;;;;51.90;31.80;;;3.40;31.20;;;;;;5057985;28;20218;-70
2023/01/24 12:46:42;;;;;;;53.27;33.80;;;3.40;35.70;;;;;;5062101;28;20181;-71
2023/01/24 12:49:18;;;;;;;51.67;30.73;;;3.40;38.80;;;;;;5010649;28;20200;-71
2023/01/24 12:52:02;;;;;;;50.60;29.93;;;3.20;38.10;;;;;;5073108;28;20224;-72
2023/01/24 12:54:58;;;;;;;50.97;32.27;;;3.30;43.10;;;;;;5058729;28;20172;-70
2023/01/24 12:57:50;;;;;;;52.43;29.63;;;3.40;40.70;;;;;;5055394;28;20649;-69
2023/01/24 13:00:21;;;;;;;52.57;31.77;;;3.50;34.90;;;;;;5058038;28;20195;-68
2023/01/24 13:03:20;;;;;;;42.70;26.47;;;3.40;34.90;;;;;;5050542;28;20212;-68
2023/01/24 13:06:04;;;;;;;48.43;31.37;;;3.30;35.10;;;;;;5066626;28;20239;-67
2023/01/24 13:08:47;;;;;;;49.80;31.40;;;3.40;35.60;;;;;;5063498;28;20180;-68
2023/01/24 13:11:25;;;;;;;51.73;32.33;;;3.40;37.50;;;;;;5068796;28;20168;-68
2023/01/24 13:14:28;;;;;;;56.60;34.23;;;3.40;38.30;;;;;;5076894;28;20234;-69
2023/01/24 13:17:14;;;;;;;50.07;31.90;;;3.60;35.00;;;;;;5059703;28;20188;-68
2023/01/24 13:20:11;;;;;;;54.03;33.37;;;3.60;26.80;;;;;;5055796;28;20279;-68
2023/01/24 13:23:00;;;;;;;44.97;28.00;;;3.60;30.00;;;;;;5062459;28;20232;-69
2023/01/24 13:26:08;;;;;;;47.70;30.43;;;3.60;27.20;;;;;;5052372;28;20200;-69
2023/01/24 13:29:10;;;;;;;51.17;30.97;;;3.60;27.70;;;;;;5053600;28;20188;-67
2023/01/24 13:31:57;;;;;;;50.70;32.27;;;3.50;30.70;;;;;;5054722;28;20701;-66
2023/01/24 13:34:31;;;;;;;45.97;28.43;;;3.50;32.90;;;;;;5054733;28;20182;-68